createdAt,value
2022-09-14T00:01:25.956Z,20.22
2022-09-14T00:03:56.095Z,20.30
2022-09-14T00:06:23.413Z,20.45
2022-09-14T00:08:52.495Z,20.22
2022-09-14T00:11:19.729Z,20.20
2022-09-14T00:13:47.888Z,20.06
2022-09-14T00:16:20.769Z,20.06
2022-09-14T00:18:52.112Z,20.04
2022-09-14T00:21:18.712Z,20.18
2022-09-14T00:23:45.565Z,20.26
2022-09-14T00:26:15.010Z,20.21
2022-09-14T00:28:44.771Z,20.20
2022-09-14T00:31:12.422Z,20.19
2022-09-14T00:33:39.422Z,20.13
2022-09-14T00:36:12.588Z,20.16
2022-09-14T00:38:39.347Z,20.15
2022-09-14T00:41:07.661Z,20.32
2022-09-14T00:44:01.818Z,20.42
2022-09-14T00:46:31.093Z,20.41
2022-09-14T00:49:00.940Z,20.34
2022-09-14T00:51:29.866Z,20.34
2022-09-14T00:53:56.454Z,20.37
2022-09-14T00:56:23.051Z,20.70
2022-09-14T00:58:53.163Z,20.75
2022-09-14T01:01:20.013Z,20.81
2022-09-14T01:03:46.757Z,21.03
2022-09-14T01:06:18.487Z,21.11
2022-09-14T01:09:04.250Z,21.22
2022-09-14T01:11:38.800Z,21.20
2022-09-14T01:14:17.271Z,21.15
2022-09-14T01:16:56.311Z,21.13
2022-09-14T01:19:34.203Z,21.12
2022-09-14T01:22:11.321Z,21.05
2022-09-14T01:24:47.972Z,21.07
2022-09-14T01:27:29.036Z,21.17
2022-09-14T01:30:08.999Z,21.15
2022-09-14T01:32:53.069Z,21.08
2022-09-14T01:35:42.287Z,21.05
2022-09-14T01:38:16.623Z,21.15
2022-09-14T01:40:46.982Z,20.99
2022-09-14T01:43:22.629Z,20.95
2022-09-14T01:45:53.018Z,20.94
2022-09-14T01:48:27.075Z,20.97
2022-09-14T01:50:58.237Z,21.00
2022-09-14T01:53:34.801Z,20.98
2022-09-14T01:56:09.055Z,20.98
2022-09-14T01:58:40.919Z,21.08
2022-09-14T02:01:13.909Z,21.11
2022-09-14T02:03:47.909Z,21.09
2022-09-14T02:06:38.763Z,21.03
2022-09-14T02:09:09.206Z,20.99
2022-09-14T02:11:36.294Z,20.94
2022-09-14T02:14:03.002Z,20.87
2022-09-14T02:16:30.116Z,20.81
2022-09-14T02:18:59.079Z,20.84
2022-09-14T02:21:31.923Z,20.75
2022-09-14T02:24:00.146Z,20.71
2022-09-14T02:26:28.223Z,20.57
2022-09-14T02:28:56.195Z,20.45
2022-09-14T02:31:34.309Z,20.39
2022-09-14T02:34:10.760Z,20.16
2022-09-14T02:36:55.242Z,20.08
2022-09-14T02:39:33.790Z,20.11
2022-09-14T02:42:23.863Z,19.89
2022-09-14T02:45:19.052Z,19.79
2022-09-14T02:47:52.982Z,19.59
2022-09-14T02:50:47.072Z,19.43
2022-09-14T02:53:19.618Z,19.31
2022-09-14T02:55:54.303Z,19.18
2022-09-14T02:58:21.837Z,19.07
2022-09-14T03:00:50.682Z,19.06
2022-09-14T03:03:20.614Z,19.00
2022-09-14T03:05:48.343Z,19.09
2022-09-14T03:08:15.035Z,19.03
2022-09-14T03:10:43.791Z,18.86
2022-09-14T03:13:11.667Z,18.83
2022-09-14T03:15:38.395Z,18.69
2022-09-14T03:18:07.810Z,18.58
2022-09-14T03:20:35.932Z,18.57
2022-09-14T03:23:04.127Z,18.37
2022-09-14T03:25:31.532Z,18.31
2022-09-14T03:27:59.867Z,18.23
2022-09-14T03:30:27.766Z,18.18
2022-09-14T03:32:54.282Z,18.21
2022-09-14T03:35:21.050Z,18.20
2022-09-14T03:37:47.885Z,18.10
2022-09-14T03:40:20.803Z,18.05
2022-09-14T03:42:50.088Z,18.02
2022-09-14T03:45:17.818Z,18.10
2022-09-14T03:47:44.567Z,18.11
2022-09-14T03:50:13.557Z,18.16
2022-09-14T03:52:40.406Z,18.09
2022-09-14T03:55:09.302Z,18.05
2022-09-14T03:57:36.487Z,18.00
2022-09-14T04:00:05.349Z,17.96
2022-09-14T04:02:32.110Z,17.88
2022-09-14T04:04:58.987Z,17.95
2022-09-14T04:07:25.843Z,17.98
2022-09-14T04:09:52.369Z,17.93
2022-09-14T04:12:18.905Z,17.88
2022-09-14T04:14:45.416Z,17.99
2022-09-14T04:17:11.946Z,17.96
2022-09-14T04:19:38.599Z,17.99
2022-09-14T04:22:05.453Z,17.98
2022-09-14T04:24:32.057Z,17.92
2022-09-14T04:26:58.656Z,18.05
2022-09-14T04:29:25.444Z,18.23
2022-09-14T04:31:51.947Z,18.28
2022-09-14T04:34:18.495Z,18.32
2022-09-14T04:36:45.050Z,18.19
2022-09-14T04:39:13.811Z,18.12
2022-09-14T04:41:40.750Z,18.05
2022-09-14T04:44:07.411Z,18.01
2022-09-14T04:46:35.851Z,17.93
2022-09-14T04:49:03.461Z,18.03
2022-09-14T04:51:31.709Z,18.16
2022-09-14T04:53:59.602Z,18.26
2022-09-14T04:56:27.835Z,18.31
2022-09-14T04:58:59.574Z,18.38
2022-09-14T05:01:30.166Z,18.19
2022-09-14T05:03:57.095Z,18.08
2022-09-14T05:06:28.986Z,18.18
2022-09-14T05:08:56.624Z,18.22
2022-09-14T05:11:25.833Z,18.36
2022-09-14T05:13:52.778Z,18.45
2022-09-14T05:16:22.008Z,18.44
2022-09-14T05:18:49.800Z,18.51
2022-09-14T05:21:19.179Z,18.49
2022-09-14T05:23:46.557Z,18.54
2022-09-14T05:26:14.223Z,18.60
2022-09-14T05:28:41.320Z,18.74
2022-09-14T05:31:10.616Z,18.57
2022-09-14T05:33:37.542Z,18.64
2022-09-14T05:36:06.842Z,18.59
2022-09-14T05:38:35.692Z,18.61
2022-09-14T05:41:02.275Z,18.82
2022-09-14T05:43:29.804Z,19.00
2022-09-14T05:45:56.752Z,19.02
2022-09-14T05:48:23.356Z,19.15
2022-09-14T05:50:57.438Z,19.24
2022-09-14T05:53:24.091Z,19.42
2022-09-14T05:55:59.770Z,19.56
2022-09-14T05:58:27.023Z,19.61
2022-09-14T06:00:53.745Z,19.70
2022-09-14T06:03:20.265Z,19.79
2022-09-14T06:05:46.909Z,19.82
2022-09-14T06:08:13.770Z,19.95
2022-09-14T06:10:40.665Z,20.14
2022-09-14T06:13:07.818Z,20.10
2022-09-14T06:15:34.836Z,20.18
2022-09-14T06:18:01.588Z,20.23
2022-09-14T06:20:28.143Z,20.29
2022-09-14T06:22:55.702Z,20.45
2022-09-14T06:25:22.270Z,20.44
2022-09-14T06:27:48.803Z,20.50
2022-09-14T06:30:16.442Z,20.55
2022-09-14T06:32:43.015Z,20.63
2022-09-14T06:35:12.424Z,20.78
2022-09-14T06:37:39.278Z,20.77
2022-09-14T06:40:06.320Z,20.84
2022-09-14T06:42:32.827Z,20.81
2022-09-14T06:44:59.306Z,21.14
2022-09-14T06:47:25.843Z,21.35
2022-09-14T06:49:52.345Z,21.41
2022-09-14T06:52:18.865Z,21.65
2022-09-14T06:54:46.889Z,21.78
2022-09-14T06:57:13.566Z,21.94
2022-09-14T06:59:40.354Z,22.07
2022-09-14T07:02:07.034Z,22.07
2022-09-14T07:04:36.941Z,22.01
2022-09-14T07:07:03.540Z,22.24
2022-09-14T07:09:31.755Z,22.27
2022-09-14T07:11:58.258Z,22.26
2022-09-14T07:14:24.755Z,22.44
2022-09-14T07:16:51.270Z,22.50
2022-09-14T07:19:17.890Z,22.68
2022-09-14T07:21:44.550Z,22.45
2022-09-14T07:24:13.130Z,22.55
2022-09-14T07:26:42.455Z,22.53
2022-09-14T07:29:14.945Z,22.46
2022-09-14T07:31:47.171Z,22.58
2022-09-14T07:34:14.374Z,22.72
2022-09-14T07:36:41.741Z,22.70
2022-09-14T07:39:11.330Z,22.94
2022-09-14T07:41:37.997Z,22.96
2022-09-14T07:44:07.358Z,22.97
2022-09-14T07:46:39.625Z,22.97
2022-09-14T07:49:07.697Z,23.14
2022-09-14T07:51:36.738Z,22.90
2022-09-14T07:54:05.362Z,23.11
2022-09-14T07:56:32.339Z,22.96
2022-09-14T07:59:23.718Z,23.27
2022-09-14T08:01:46.927Z,23.17
2022-09-14T08:04:13.749Z,23.39
2022-09-14T08:06:40.756Z,23.36
2022-09-14T08:09:08.891Z,23.43
2022-09-14T08:11:35.859Z,23.51
2022-09-14T08:14:05.712Z,23.65
2022-09-14T08:16:34.772Z,23.37
2022-09-14T08:19:04.665Z,23.50
2022-09-14T08:21:32.657Z,23.71
2022-09-14T08:24:02.443Z,23.48
2022-09-14T08:26:29.372Z,23.69
2022-09-14T08:28:56.927Z,24.03
2022-09-14T08:31:25.461Z,24.24
2022-09-14T08:33:55.166Z,24.56
2022-09-14T08:36:23.529Z,24.62
2022-09-14T08:38:50.414Z,24.42
2022-09-14T08:41:44.015Z,24.41
2022-09-14T08:44:25.843Z,24.36
2022-09-14T08:47:02.892Z,24.52
2022-09-14T08:49:48.071Z,24.53
2022-09-14T08:52:34.645Z,24.57
2022-09-14T08:55:16.543Z,24.62
2022-09-14T08:57:48.406Z,25.05
2022-09-14T09:00:22.888Z,25.03
2022-09-14T09:02:58.434Z,25.46
2022-09-14T09:05:53.663Z,25.02
2022-09-14T09:08:43.315Z,25.09
2022-09-14T09:11:18.421Z,24.87
2022-09-14T09:13:46.946Z,25.16
2022-09-14T09:16:21.207Z,25.23
2022-09-14T09:18:51.935Z,25.72
2022-09-14T09:21:23.443Z,25.14
2022-09-14T09:23:50.283Z,25.48
2022-09-14T09:26:28.923Z,25.67
2022-09-14T09:28:59.494Z,25.37
2022-09-14T09:31:57.769Z,25.23
2022-09-14T09:34:29.755Z,25.61
2022-09-14T09:36:56.606Z,25.91
2022-09-14T09:39:26.955Z,25.76
2022-09-14T09:42:24.107Z,25.89
2022-09-14T09:45:05.883Z,25.87
2022-09-14T09:47:43.239Z,25.32
2022-09-14T09:50:19.041Z,25.91
2022-09-14T09:53:02.090Z,26.12
2022-09-14T09:55:38.997Z,25.89
2022-09-14T09:58:35.923Z,25.77
2022-09-14T10:01:19.272Z,25.57
2022-09-14T10:04:19.967Z,26.09
2022-09-14T10:06:49.778Z,26.11
2022-09-14T10:09:21.751Z,26.51
2022-09-14T10:12:00.530Z,26.07
2022-09-14T10:14:34.007Z,26.07
2022-09-14T10:17:06.695Z,25.94
2022-09-14T10:19:34.220Z,25.45
2022-09-14T10:22:31.233Z,25.79
2022-09-14T10:24:59.762Z,26.03
2022-09-14T10:27:55.448Z,25.82
2022-09-14T10:30:40.561Z,25.45
2022-09-14T10:33:12.696Z,24.76
2022-09-14T10:36:26.346Z,25.06
2022-09-14T10:38:58.368Z,24.67
2022-09-14T10:41:31.096Z,24.95
2022-09-14T10:44:19.541Z,25.36
2022-09-14T10:46:53.015Z,25.63
2022-09-14T10:49:32.019Z,25.93
2022-09-14T10:52:14.065Z,26.08
2022-09-14T10:54:46.328Z,26.36
2022-09-14T10:57:40.510Z,26.44
2022-09-14T11:00:18.624Z,26.42
2022-09-14T11:03:01.777Z,26.22
2022-09-14T11:05:38.242Z,26.35
2022-09-14T11:08:27.339Z,26.28
2022-09-14T11:11:22.943Z,26.24
2022-09-14T11:14:23.671Z,25.96
2022-09-14T11:17:02.604Z,26.01
2022-09-14T11:20:04.566Z,25.94
2022-09-14T11:22:44.658Z,25.70
2022-09-14T11:25:17.442Z,25.63
2022-09-14T11:27:55.150Z,25.98
2022-09-14T11:30:24.659Z,25.97
2022-09-14T11:33:07.401Z,25.98
2022-09-14T11:35:48.206Z,25.84
2022-09-14T11:38:20.136Z,25.76
2022-09-14T11:41:16.351Z,25.47
2022-09-14T11:43:57.863Z,24.81
2022-09-14T11:46:47.062Z,24.65
2022-09-14T11:49:22.565Z,24.78
2022-09-14T11:51:54.188Z,24.80
2022-09-14T11:54:22.297Z,24.45
2022-09-14T11:56:51.379Z,24.35
2022-09-14T11:59:58.246Z,24.32
2022-09-14T12:02:27.894Z,24.13
2022-09-14T12:05:06.801Z,24.01
2022-09-14T12:07:36.074Z,23.89
2022-09-14T12:10:15.068Z,24.00
2022-09-14T12:12:46.186Z,24.07
2022-09-14T12:15:21.851Z,24.08
2022-09-14T12:17:49.119Z,24.66
2022-09-14T12:20:52.763Z,24.92
2022-09-14T12:23:27.950Z,25.20
2022-09-14T12:26:05.538Z,25.29
2022-09-14T12:28:35.118Z,25.54
2022-09-14T12:31:04.396Z,25.74
2022-09-14T12:33:33.870Z,25.93
2022-09-14T12:36:11.135Z,26.38
2022-09-14T12:38:37.942Z,26.49
2022-09-14T12:41:10.515Z,26.64
2022-09-14T12:43:37.254Z,27.14
2022-09-14T12:46:05.050Z,26.76
2022-09-14T12:48:50.874Z,26.25
2022-09-14T12:51:30.416Z,26.37
2022-09-14T12:54:11.741Z,26.78
2022-09-14T12:56:47.405Z,26.41
2022-09-14T12:59:27.747Z,26.67
2022-09-14T13:02:26.288Z,26.58
2022-09-14T13:04:55.173Z,26.51
2022-09-14T13:07:23.036Z,26.54
2022-09-14T13:09:52.999Z,27.19
2022-09-14T13:12:41.865Z,27.48
2022-09-14T13:15:32.300Z,28.76
2022-09-14T13:18:01.531Z,29.10
2022-09-14T13:20:29.867Z,29.00
2022-09-14T13:22:56.677Z,28.82
2022-09-14T13:25:32.913Z,28.68
2022-09-14T13:28:05.543Z,28.84
2022-09-14T13:30:33.732Z,29.03
2022-09-14T13:33:00.884Z,28.53
2022-09-14T13:35:35.635Z,29.01
2022-09-14T13:38:18.915Z,29.22
2022-09-14T13:40:49.201Z,29.26
2022-09-14T13:43:17.736Z,28.68
2022-09-14T13:45:44.849Z,28.75
2022-09-14T13:48:15.226Z,28.43
2022-09-14T13:50:48.090Z,28.45
2022-09-14T13:53:40.591Z,29.01
2022-09-14T13:56:21.228Z,28.53
2022-09-14T13:58:50.548Z,28.47
2022-09-14T14:01:28.481Z,28.45
2022-09-14T14:03:55.419Z,28.47
2022-09-14T14:06:32.321Z,29.32
2022-09-14T14:09:05.607Z,29.58
2022-09-14T14:11:36.673Z,29.92
2022-09-14T14:14:17.046Z,29.47
2022-09-14T14:17:21.179Z,29.16
2022-09-14T14:19:49.186Z,28.74
2022-09-14T14:22:15.621Z,28.61
2022-09-14T14:25:09.190Z,28.91
2022-09-14T14:27:36.026Z,29.14
2022-09-14T14:30:13.436Z,29.13
2022-09-14T14:32:39.990Z,29.21
2022-09-14T14:35:22.428Z,29.02
2022-09-14T14:37:50.230Z,29.02
2022-09-14T14:40:18.176Z,28.74
2022-09-14T14:42:45.659Z,28.76
2022-09-14T14:45:18.928Z,28.99
2022-09-14T14:47:50.613Z,28.83
2022-09-14T14:50:26.655Z,28.77
2022-09-14T14:52:53.931Z,28.99
2022-09-14T14:55:21.731Z,28.98
2022-09-14T14:57:49.275Z,28.89
2022-09-14T15:00:23.139Z,28.78
2022-09-14T15:02:50.336Z,30.28
2022-09-14T15:05:17.896Z,32.60
2022-09-14T15:07:44.867Z,34.18
2022-09-14T15:10:15.177Z,35.68
2022-09-14T15:12:42.530Z,36.68
2022-09-14T15:15:15.021Z,36.74
2022-09-14T15:17:42.511Z,36.96
2022-09-14T15:20:10.040Z,37.58
2022-09-14T15:22:36.694Z,38.31
2022-09-14T15:25:04.514Z,37.88
2022-09-14T15:27:31.638Z,35.79
2022-09-14T15:29:58.175Z,33.80
2022-09-14T15:32:24.766Z,34.55
2022-09-14T15:34:52.982Z,35.50
2022-09-14T15:37:20.055Z,34.19
2022-09-14T15:39:50.018Z,33.37
2022-09-14T15:42:20.537Z,33.87
2022-09-14T15:44:47.131Z,33.94
2022-09-14T15:47:14.822Z,32.56
2022-09-14T15:49:42.425Z,31.81
2022-09-14T15:52:10.501Z,31.13
2022-09-14T15:54:38.429Z,31.21
2022-09-14T15:57:08.364Z,30.23
2022-09-14T15:59:35.206Z,29.48
2022-09-14T16:02:02.204Z,29.01
2022-09-14T16:04:28.911Z,28.82
2022-09-14T16:06:55.459Z,28.83
2022-09-14T16:09:22.602Z,28.56
2022-09-14T16:11:49.878Z,28.37
2022-09-14T16:14:16.419Z,27.69
2022-09-14T16:16:43.084Z,27.42
2022-09-14T16:19:12.616Z,27.61
2022-09-14T16:21:40.470Z,27.22
2022-09-14T16:24:11.384Z,26.56
2022-09-14T16:26:38.825Z,26.22
2022-09-14T16:29:08.468Z,26.35
2022-09-14T16:31:37.432Z,26.12
2022-09-14T16:34:07.379Z,25.80
2022-09-14T16:36:37.751Z,25.42
2022-09-14T16:39:06.442Z,25.32
2022-09-14T16:41:33.284Z,25.10
2022-09-14T16:44:02.695Z,25.00
2022-09-14T16:46:31.184Z,25.03
2022-09-14T16:49:01.466Z,24.85
2022-09-14T16:51:29.832Z,24.75
2022-09-14T16:53:57.987Z,24.96
2022-09-14T16:56:26.938Z,24.64
2022-09-14T16:58:55.110Z,24.39
2022-09-14T17:01:25.038Z,24.38
2022-09-14T17:03:53.645Z,24.28
2022-09-14T17:06:26.024Z,24.07
2022-09-14T17:08:54.414Z,24.07
2022-09-14T17:11:21.263Z,23.95
2022-09-14T17:13:47.907Z,23.74
2022-09-14T17:16:19.394Z,23.73
2022-09-14T17:18:50.498Z,23.72
2022-09-14T17:21:22.787Z,23.57
2022-09-14T17:23:49.658Z,23.51
2022-09-14T17:26:18.656Z,23.37
2022-09-14T17:28:47.495Z,23.24
2022-09-14T17:31:16.577Z,23.13
2022-09-14T17:33:43.355Z,23.14
2022-09-14T17:36:10.000Z,23.10
2022-09-14T17:38:39.557Z,23.53
2022-09-14T17:41:11.982Z,23.33
2022-09-14T17:43:39.934Z,23.40
2022-09-14T17:46:08.384Z,23.36
2022-09-14T17:48:37.715Z,23.37
2022-09-14T17:51:09.636Z,23.05
2022-09-14T17:53:38.384Z,23.20
2022-09-14T17:56:06.626Z,23.05
2022-09-14T17:58:33.873Z,22.98
2022-09-14T18:01:19.182Z,22.66
2022-09-14T18:03:51.100Z,22.65
2022-09-14T18:06:18.314Z,22.54
2022-09-14T18:08:45.549Z,22.30
2022-09-14T18:11:15.223Z,22.20
2022-09-14T18:13:47.322Z,22.11
2022-09-14T18:16:15.952Z,21.82
2022-09-14T18:18:43.050Z,21.64
2022-09-14T18:21:10.456Z,21.54
2022-09-14T18:23:37.691Z,21.44
2022-09-14T18:26:06.608Z,21.20
2022-09-14T18:28:34.043Z,20.98
2022-09-14T18:31:07.301Z,20.62
2022-09-14T18:33:35.201Z,20.57
2022-09-14T18:36:01.914Z,20.45
2022-09-14T18:38:30.132Z,20.33
2022-09-14T18:41:06.191Z,20.35
2022-09-14T18:43:32.842Z,20.30
2022-09-14T18:46:00.409Z,20.09
2022-09-14T18:48:27.088Z,20.05
2022-09-14T18:50:53.707Z,19.92
2022-09-14T18:53:20.274Z,19.92
2022-09-14T18:55:46.827Z,19.69
2022-09-14T18:58:13.552Z,19.65
2022-09-14T19:00:46.737Z,19.66
2022-09-14T19:03:13.517Z,19.61
2022-09-14T19:05:41.553Z,19.57
2022-09-14T19:08:10.126Z,19.49
2022-09-14T19:10:37.831Z,19.62
2022-09-14T19:13:05.417Z,19.65
2022-09-14T19:15:32.904Z,19.59
2022-09-14T19:17:59.934Z,19.58
2022-09-14T19:20:38.163Z,19.40
2022-09-14T19:23:13.264Z,19.27
2022-09-14T19:25:40.568Z,19.35
2022-09-14T19:28:07.443Z,19.16
2022-09-14T19:30:36.293Z,19.18
2022-09-14T19:33:03.263Z,19.43
2022-09-14T19:35:30.601Z,19.31
2022-09-14T19:37:58.203Z,19.34
2022-09-14T19:40:25.132Z,19.48
2022-09-14T19:42:52.027Z,19.61
2022-09-14T19:45:19.555Z,19.56
2022-09-14T19:47:46.145Z,19.55
2022-09-14T19:50:12.846Z,19.68
2022-09-14T19:52:39.377Z,19.56
2022-09-14T19:55:07.461Z,19.48
2022-09-14T19:57:36.665Z,19.42
2022-09-14T20:00:06.479Z,19.43
2022-09-14T20:02:33.473Z,19.60
2022-09-14T20:05:00.216Z,19.58
2022-09-14T20:07:26.783Z,19.56
2022-09-14T20:09:53.597Z,19.56
2022-09-14T20:12:20.110Z,19.61
2022-09-14T20:14:46.638Z,19.55
2022-09-14T20:17:13.482Z,19.59
2022-09-14T20:19:40.143Z,19.50
2022-09-14T20:22:06.635Z,19.35
2022-09-14T20:24:33.178Z,19.28
2022-09-14T20:27:00.985Z,19.35
2022-09-14T20:29:30.656Z,19.27
2022-09-14T20:31:58.248Z,19.31
2022-09-14T20:34:25.118Z,19.30
2022-09-14T20:36:53.132Z,19.45
2022-09-14T20:39:21.698Z,19.47
2022-09-14T20:41:49.034Z,19.33
2022-09-14T20:44:17.062Z,19.36
2022-09-14T20:46:44.784Z,19.34
2022-09-14T20:49:13.897Z,19.45
2022-09-14T20:51:41.355Z,19.52
2022-09-14T20:54:11.429Z,19.50
2022-09-14T20:56:39.021Z,19.31
2022-09-14T20:59:09.682Z,19.31
2022-09-14T21:01:38.331Z,19.35
2022-09-14T21:04:13.937Z,19.28
2022-09-14T21:06:43.039Z,19.35
2022-09-14T21:09:11.026Z,19.22
2022-09-14T21:11:38.142Z,19.28
2022-09-14T21:14:05.063Z,19.26
2022-09-14T21:16:37.059Z,19.17
2022-09-14T21:19:10.819Z,19.14
2022-09-14T21:21:38.256Z,19.05
2022-09-14T21:24:07.200Z,19.01
2022-09-14T21:26:34.267Z,18.92
2022-09-14T21:29:05.151Z,18.89
2022-09-14T21:31:33.451Z,18.83
2022-09-14T21:34:01.914Z,18.85
2022-09-14T21:36:31.935Z,18.82
2022-09-14T21:39:00.128Z,18.76
2022-09-14T21:41:28.967Z,18.88
2022-09-14T21:43:57.128Z,18.99
2022-09-14T21:46:25.329Z,18.91
2022-09-14T21:48:52.518Z,18.92
2022-09-14T21:51:25.573Z,19.00
2022-09-14T21:53:57.379Z,18.96
2022-09-14T21:56:25.797Z,19.02
2022-09-14T21:58:57.237Z,18.98
2022-09-14T22:01:24.813Z,18.92
2022-09-14T22:03:52.903Z,19.02
2022-09-14T22:06:23.742Z,19.03
2022-09-14T22:08:51.865Z,18.92
2022-09-14T22:11:23.163Z,18.89
2022-09-14T22:13:58.515Z,18.97
2022-09-14T22:16:26.869Z,18.96
2022-09-14T22:18:55.979Z,18.90
2022-09-14T22:21:24.449Z,18.79
2022-09-14T22:23:53.840Z,18.91
2022-09-14T22:26:21.322Z,18.95
2022-09-14T22:28:49.919Z,18.81
2022-09-14T22:31:18.377Z,18.75
2022-09-14T22:33:45.320Z,18.86
2022-09-14T22:36:12.658Z,18.83
2022-09-14T22:38:42.179Z,18.89
2022-09-14T22:41:14.482Z,18.89
2022-09-14T22:43:41.447Z,18.77
2022-09-14T22:46:08.669Z,18.77
2022-09-14T22:48:36.796Z,18.75
2022-09-14T22:51:05.573Z,18.79
2022-09-14T22:53:33.006Z,18.84
2022-09-14T22:56:06.214Z,18.82
2022-09-14T22:58:32.915Z,18.81
2022-09-14T23:01:10.015Z,18.87
2022-09-14T23:03:37.363Z,18.77
2022-09-14T23:06:04.567Z,18.76
2022-09-14T23:08:32.021Z,18.69
2022-09-14T23:11:03.859Z,18.81
2022-09-14T23:13:30.503Z,18.70
2022-09-14T23:15:57.044Z,18.62
2022-09-14T23:18:23.559Z,18.73
2022-09-14T23:20:50.130Z,18.69
2022-09-14T23:23:16.768Z,18.65
2022-09-14T23:25:43.439Z,18.79
2022-09-14T23:28:11.755Z,18.80
2022-09-14T23:30:38.860Z,18.80
2022-09-14T23:33:05.746Z,18.63
2022-09-14T23:35:36.904Z,18.60
2022-09-14T23:38:04.227Z,18.59
2022-09-14T23:40:30.807Z,18.52
2022-09-14T23:42:57.387Z,18.64
2022-09-14T23:45:23.892Z,18.65
2022-09-14T23:47:50.572Z,18.53
2022-09-14T23:50:17.139Z,18.50
2022-09-14T23:52:43.864Z,18.42
2022-09-14T23:55:10.610Z,18.39
2022-09-14T23:57:37.944Z,18.33
